• Join FlightAware (Why Join?)
  • Login
  • US Flag 
03:21PM EDT


 

Airport Tracker/Info


-or-


 

Live Flight TrackerFlight Track Log ✈ RPA3253 ✈ 20-Jun-2013 ✈ KALB - KCLT

Flight Track Log - Related Links

Times and Time Zones

All times are in EDT time to prevent confusion due to time zone crossing. See the RPA3253 flight status page for this flight to view local times or setup timezone preferences in your user account.

Time Position Orientation Groundspeed Altitude Reporting Facility
EDT Latitude Longitude Course Direction KTS MPH feet Rate Location/Type
07:32PM 42.7194 -73.8078 117° Southeast 159 183 1,300  Level Boston Center
07:33PM 42.7164 -73.8700 266° West 238 274 3,900 2,520 Climbing Boston Center
07:34PM 42.5182 -74.0528 171° South  Level Estimated
07:34PM 42.7617 -73.9219 320° Northwest 237 273 7,000  Level Boston Center
07:35PM 42.4411 -74.1360 180° South  Level Estimated
07:35PM 42.7817 -73.9961 290° West 216 249 9,700  Level Boston Center
07:36PM 42.3639 -74.2189 170° South  Level Estimated
07:36PM 42.7842 -74.0978 272° West 226 260 12,400  Level Boston Center
07:37PM 42.2867 -74.3017 169° South  Level Estimated
07:37PM 42.7414 -74.1758 233° Southwest 238 274 13,800  Level Boston Center
07:38PM 42.2412 -74.1836 117° Southeast  Level FlightAware Approximate
07:38PM 42.6472 -74.1986 190° South 308 354 16,000  Level Boston Center
07:39PM 42.5522 -74.1394 155° Southeast 335 386 17,800 1,860 Climbing Boston Center
07:40PM 42.4678 -74.0811 153° Southeast 362 417 19,800 1,920 Climbing Boston Center
07:41PM 42.3686 -74.0108 152° Southeast 378 435 21,700 1,800 Climbing Boston Center
07:42PM 42.2675 -73.9467 155° Southeast 396 456 23,400 1,620 Climbing Boston Center
07:43PM 42.1642 -73.8742 153° Southeast 407 468 25,000 1,500 Climbing Boston Center
07:44PM 42.0589 -73.8019 153° Southeast 414 476 26,500 1,440 Climbing Boston Center
07:45PM 41.9492 -73.7297 154° Southeast 426 490 27,900 1,200 Climbing Boston Center
07:46PM 41.8369 -73.7050 171° South 420 483 29,000 960 Climbing Boston Center
07:47PM 41.7261 -73.7197 186° South 404 465 29,900 1,080 Climbing Boston Center
07:48PM 41.6114 -73.7394 187° South 409 471 31,200 1,440 Climbing Boston Center
07:50PM 41.4931 -73.8150 206° Southwest 403 464 33,000 1,260 Climbing New York Center
07:51PM 41.4036 -73.8883 212° Southwest 385 443 34,000 480 Climbing New York Center
07:52PM 41.3142 -73.9669 213° Southwest 385 443 34,000 120 Level New York Center
07:53PM 41.2139 -74.0506 212° Southwest 404 465 34,300 540 Climbing New York Center
07:54PM 41.1200 -74.1314 213° Southwest 415 478 35,200 720 Climbing New York Center
07:55PM 41.0328 -74.1983 210° Southwest 415 478 35,800 360 Climbing New York Center
07:56PM 40.9344 -74.2786 212° Southwest 415 478 36,000 60 Climbing New York Center
07:57PM 40.8406 -74.3589 213° Southwest 415 478 36,000  Level New York Center
07:58PM 40.7583 -74.4503 220° Southwest 410 472 36,000  Level New York Center
07:59PM 40.6922 -74.5644 233° Southwest 392 451 36,000  Level New York Center
08:00PM 40.6242 -74.6756 231° Southwest 398 458 36,000  Level New York Center
08:01PM 40.5536 -74.7861 230° Southwest 398 458 36,000  Level New York Center
08:02PM 40.4792 -74.8936 228° Southwest 398 458 36,000  Level New York Center
08:03PM 40.4003 -75.0008 226° Southwest 403 464 36,000  Level New York Center
08:04PM 40.3233 -75.1103 227° Southwest 408 470 36,000  Level New York Center
08:05PM 40.2486 -75.2172 228° Southwest 408 470 36,000  Level New York Center
08:06PM 40.1736 -75.3264 228° Southwest 408 470 36,000  Level New York Center
08:07PM 40.0964 -75.4328 227° Southwest 408 470 36,000  Level New York Center
08:08PM 40.0192 -75.5386 226° Southwest 408 470 36,000  Level New York Center
08:09PM 39.9419 -75.6444 226° Southwest 408 470 36,000  Level New York Center
08:10PM 39.8706 -75.7531 229° Southwest 408 470 36,000  Level New York Center
08:11PM 39.7922 -75.8800 231° Southwest 408 470 36,000  Level New York Center
08:12PM 39.6856 -76.0419 229° Southwest 399 459 36,000  Level Washington Center
08:13PM 39.6186 -76.1544 232° Southwest 399 459 36,000  Level Washington Center
08:14PM 39.5472 -76.2617 229° Southwest 399 459 36,000  Level Washington Center
08:15PM 39.4736 -76.3711 229° Southwest 399 459 36,000  Level Washington Center
08:16PM 39.4061 -76.4833 232° Southwest 399 459 36,000  Level Washington Center
08:17PM 39.3281 -76.5950 228° Southwest 404 465 36,000  Level Washington Center
08:18PM 39.2583 -76.7039 230° Southwest 404 465 36,000  Level Washington Center
08:19PM 39.1886 -76.8153 231° Southwest 404 465 36,000  Level Washington Center
08:20PM 39.1164 -76.9267 230° Southwest 404 465 36,000  Level Washington Center
08:21PM 39.0444 -77.0347 229° Southwest 404 465 36,000  Level Washington Center
08:22PM 38.9597 -77.1292 221° Southwest 399 459 36,000  Level Washington Center
08:23PM 38.8731 -77.2233 220° Southwest 399 459 36,000  Level Washington Center
08:24PM 38.7883 -77.3175 221° Southwest 405 466 36,000  Level Washington Center
08:25PM 38.7017 -77.4111 220° Southwest 410 472 36,000  Level Washington Center
08:26PM 38.6061 -77.5125 220° Southwest 410 472 36,000  Level Washington Center
08:27PM 38.5211 -77.6083 221° Southwest 410 472 36,000  Level Washington Center
08:28PM 38.4383 -77.6989 221° Southwest 410 472 36,000  Level Washington Center
08:29PM 38.3553 -77.7892 220° Southwest 410 472 36,000  Level Washington Center
08:30PM 38.2703 -77.8819 221° Southwest 410 472 36,000  Level Washington Center
08:31PM 38.1872 -77.9719 220° Southwest 410 472 36,000  Level Washington Center
08:32PM 38.1042 -78.0617 220° Southwest 410 472 36,000  Level Washington Center
08:33PM 38.0208 -78.1486 219° Southwest 405 466 36,000  Level Washington Center
08:34PM 37.9583 -78.2386 229° Southwest 389 448 36,000  Level Washington Center
08:35PM 37.8853 -78.3439 229° Southwest 395 455 36,000  Level Washington Center
08:36PM 37.7953 -78.4483 223° Southwest 401 461 36,000  Level Washington Center
08:37PM 37.7117 -78.5372 220° Southwest 401 461 36,000 -60 Level Washington Center
08:38PM 37.6281 -78.6308 222° Southwest 401 461 35,900 -420 Descending Washington Center
08:39PM 37.5400 -78.7217 219° Southwest 401 461 35,200 -720 Descending Washington Center
08:40PM 37.4542 -78.8122 220° Southwest 401 461 34,500 -720 Descending Washington Center
08:41PM 37.3747 -78.9006 221° Southwest 415 478 33,800 -720 Descending Washington Center
08:42PM 37.2844 -78.9931 219° Southwest 415 478 33,100 -420 Descending Washington Center
08:43PM 37.1942 -79.0881 220° Southwest 415 478 33,000 -60 Descending Washington Center
08:44PM 37.1036 -79.1831 220° Southwest 421 484 33,000  Level Washington Center
08:45PM 37.0153 -79.2778 221° Southwest 421 484 33,000 -600 Level Washington Center
08:46PM 36.9161 -79.3822 220° Southwest 427 491 31,800 -1,020 Descending Washington Center
08:47PM 36.8275 -79.4764 220° Southwest 427 491 31,000 -420 Descending Washington Center
08:48PM 36.7389 -79.5678 220° Southwest 420 483 31,000 -420 Level Washington Center
08:49PM 36.6481 -79.6642 220° Southwest 425 489 30,200 -1,920 Descending Washington Center
08:52PM 36.3900 -79.9278 219° Southwest 426 490 23,500 -2,100 Descending Atlanta Center
08:53PM 36.3011 -80.0197 220° Southwest 431 496 22,000 -1,200 Descending Atlanta Center
08:54PM 36.2058 -80.0992 214° Southwest 431 496 21,100 -1,440 Descending Atlanta Center
08:55PM 36.1122 -80.1783 214° Southwest 420 483 19,200 -2,100 Descending Atlanta Center
08:56PM 36.0128 -80.2628 214° Southwest 414 476 17,000 -2,100 Descending Atlanta Center
08:57PM 35.9233 -80.3386 214° Southwest 404 465 15,100 -1,860 Descending Atlanta Center
08:58PM 35.8381 -80.4192 217° Southwest 379 436 13,400 -1,620 Descending Atlanta Center
08:59PM 35.7628 -80.4814 214° Southwest 312 359 11,900 -1,260 Descending Atlanta Center
09:00PM 35.6994 -80.5356 215° Southwest 288 331 11,000 -1,140 Descending Atlanta Center
09:01PM 35.6300 -80.5844 210° Southwest 292 336 9,700 -1,260 Descending Atlanta Center
09:02PM 35.5583 -80.6283 206° Southwest 293 337 8,400 -1,320 Descending Atlanta Center
09:03PM 35.4886 -80.6744 208° Southwest 286 329 7,000 -1,260 Descending Atlanta Center
09:04PM 35.4147 -80.7258 210° Southwest 286 329 5,900 -1,200 Descending Atlanta Center
09:05PM 35.3553 -80.7639 208° Southwest 269 310 4,600 -1,260 Descending Atlanta Center
09:06PM 35.3106 -80.8089 219° Southwest 231 266 3,400 -1,200 Descending Atlanta Center